Time;durP1;ratioP1;P1;durP2;ratioP2;P2;SDS_P1;SDS_P2;PMS_P1;PMS_P2;Temp;Humidity;BMP_temperature;BMP_pressure;BME280_temperature;BME280_humidity;BME280_pressure;Samples;Min_cycle;Max_cycle;Signal;HPM_P1;HPM_P2
2022/12/30 00:01:34;;;;;;;;;3.50;3.25;;;;;;;;5058937;28;45311;-73
2022/12/30 00:03:59;;;;;;;;;18.00;16.00;;;;;;;;5045277;28;45423;-73
2022/12/30 00:06:25;;;;;;;;;13.50;9.50;;;;;;;;5056775;28;45323;-73
2022/12/30 00:08:53;;;;;;;;;12.75;10.75;;;;;;;;5052648;28;45273;-73
2022/12/30 00:11:27;;;;;;;;;5.50;5.50;;;;;;;;5038403;28;46793;-72
2022/12/30 00:33:40;;;;;;;;;11.50;11.25;;;;;;;;5055042;28;45590;-72
2022/12/30 00:36:06;;;;;;;;;7.75;4.50;;;;;;;;5039912;28;45266;-72
2022/12/30 00:38:31;;;;;;;;;9.00;8.00;;;;;;;;5042406;28;45427;-73
2022/12/30 00:43:40;;;;;;;;;8.25;5.75;;;;;;;;5055087;28;45222;-73
2022/12/30 00:46:05;;;;;;;;;7.00;7.00;;;;;;;;5054340;28;45175;-73
2022/12/30 00:56:44;;;;;;;;;8.75;6.50;;;;;;;;5058930;28;45469;-72
2022/12/30 00:59:09;;;;;;;;;11.50;10.00;;;;;;;;5045178;28;45337;-73
2022/12/30 01:01:35;;;;;;;;;4.75;3.00;;;;;;;;5059336;28;45139;-72
2022/12/30 01:04:00;;;;;;;;;5.50;3.00;;;;;;;;5049767;28;45146;-73
2022/12/30 01:06:25;;;;;;;;;7.00;4.25;;;;;;;;5061550;28;46227;-73
2022/12/30 01:08:50;;;;;;;;;5.50;3.00;;;;;;;;5049875;28;45131;-73
2022/12/30 01:11:15;;;;;;;;;4.00;4.00;;;;;;;;5059503;28;45369;-73
2022/12/30 01:13:41;;;;;;;;;6.50;1.75;;;;;;;;5052732;28;45227;-73
2022/12/30 01:16:10;;;;;;;;;2.00;2.00;;;;;;;;5060924;28;45287;-73
2022/12/30 01:18:36;;;;;;;;;2.00;2.00;;;;;;;;5038101;28;45417;-73
2022/12/30 01:21:01;;;;;;;;;1.75;1.25;;;;;;;;5053756;28;45325;-72
2022/12/30 01:23:27;;;;;;;;;4.00;2.75;;;;;;;;5037104;28;46756;-73
2022/12/30 01:25:52;;;;;;;;;3.00;1.00;;;;;;;;5054691;28;45399;-73
2022/12/30 01:28:17;;;;;;;;;1.25;1.25;;;;;;;;5053201;28;45425;-73
2022/12/30 01:30:42;;;;;;;;;6.00;2.75;;;;;;;;5061339;28;45377;-73
2022/12/30 01:33:07;;;;;;;;;6.00;3.75;;;;;;;;5054075;28;45498;-73
2022/12/30 01:35:33;;;;;;;;;5.25;3.00;;;;;;;;5061051;28;46160;-72
2022/12/30 01:37:58;;;;;;;;;4.25;2.25;;;;;;;;5054147;28;45399;-73
2022/12/30 01:40:23;;;;;;;;;3.00;2.00;;;;;;;;5053774;28;45368;-72
2022/12/30 01:42:49;;;;;;;;;3.00;2.00;;;;;;;;5055900;28;45264;-73
2022/12/30 01:45:25;;;;;;;;;1.00;1.00;;;;;;;;5055081;28;45917;-72
2022/12/30 01:47:54;;;;;;;;;5.50;2.00;;;;;;;;5042059;28;45259;-73
2022/12/30 01:50:26;;;;;;;;;0.75;0.00;;;;;;;;5057135;28;45409;-73
2022/12/30 01:52:54;;;;;;;;;3.75;1.00;;;;;;;;5057764;28;45466;-73
2022/12/30 01:55:27;;;;;;;;;1.50;1.50;;;;;;;;5059253;28;45374;-73
2022/12/30 01:57:54;;;;;;;;;2.00;1.75;;;;;;;;5054216;28;45482;-73
2022/12/30 02:00:20;;;;;;;;;4.00;3.00;;;;;;;;5030468;28;45376;-73
2022/12/30 02:02:45;;;;;;;;;4.75;2.00;;;;;;;;5055140;28;45407;-73
2022/12/30 02:05:11;;;;;;;;;8.00;3.00;;;;;;;;5049497;28;45319;-72
2022/12/30 02:07:41;;;;;;;;;2.50;2.50;;;;;;;;5038426;28;45487;-73
2022/12/30 02:10:08;;;;;;;;;4.00;2.50;;;;;;;;5038338;28;45302;-73
2022/12/30 02:12:33;;;;;;;;;7.00;4.00;;;;;;;;5053915;28;45496;-73
2022/12/30 02:14:59;;;;;;;;;2.25;2.25;;;;;;;;5036125;28;48041;-73
2022/12/30 02:17:35;;;;;;;;;8.25;4.00;;;;;;;;5057994;28;45256;-73
2022/12/30 02:20:23;;;;;;;;;5.00;2.50;;;;;;;;5049316;28;45289;-72
2022/12/30 02:22:58;;;;;;;;;5.25;2.00;;;;;;;;5055261;28;45407;-72
2022/12/30 02:25:26;;;;;;;;;7.00;3.75;;;;;;;;5052163;28;46330;-72
2022/12/30 02:27:51;;;;;;;;;4.00;3.00;;;;;;;;5038087;28;45252;-72
2022/12/30 02:30:36;;;;;;;;;7.75;4.75;;;;;;;;5053962;28;45544;-72
2022/12/30 02:33:10;;;;;;;;;6.25;3.50;;;;;;;;5048653;28;45197;-73
2022/12/30 02:35:55;;;;;;;;;3.00;3.00;;;;;;;;5038906;28;46954;-73
2022/12/30 02:38:38;;;;;;;;;6.25;3.75;;;;;;;;5032744;28;45489;-73
2022/12/30 02:46:52;;;;;;;;;3.50;3.50;;;;;;;;5055438;28;45774;-73
2022/12/30 02:49:19;;;;;;;;;7.00;4.25;;;;;;;;5051142;28;45495;-73
2022/12/30 02:54:30;;;;;;;;;8.00;7.25;;;;;;;;5050820;28;45321;-72
2022/12/30 02:56:55;;;;;;;;;4.50;4.00;;;;;;;;5039186;28;47376;-73
2022/12/30 03:05:10;;;;;;;;;6.50;4.75;;;;;;;;5046465;28;45431;-73
2022/12/30 03:07:55;;;;;;;;;8.50;7.00;;;;;;;;5055528;28;45140;-73
2022/12/30 03:13:28;;;;;;;;;8.25;6.00;;;;;;;;5044978;28;45313;-72
2022/12/30 03:16:04;;;;;;;;;6.50;5.50;;;;;;;;5053714;28;45329;-72
2022/12/30 03:18:30;;;;;;;;;8.25;7.75;;;;;;;;5045495;28;45339;-73
2022/12/30 03:20:55;;;;;;;;;4.25;3.50;;;;;;;;5054755;28;44928;-73
2022/12/30 03:28:51;;;;;;;;;7.75;5.50;;;;;;;;5045580;28;45496;-73
2022/12/30 03:31:17;;;;;;;;;6.25;5.50;;;;;;;;5049010;28;45304;-73
2022/12/30 03:33:43;;;;;;;;;6.00;6.00;;;;;;;;5048110;28;45543;-73
2022/12/30 03:36:18;;;;;;;;;10.00;5.25;;;;;;;;5050241;28;45426;-72
2022/12/30 03:38:51;;;;;;;;;8.00;7.00;;;;;;;;5051111;28;46171;-73
2022/12/30 03:41:18;;;;;;;;;5.50;4.00;;;;;;;;5051177;28;45363;-74
2022/12/30 03:43:43;;;;;;;;;14.25;6.50;;;;;;;;5040504;28;45451;-73
2022/12/30 03:46:09;;;;;;;;;9.00;7.25;;;;;;;;5052337;28;45194;-73
2022/12/30 03:48:34;;;;;;;;;7.75;6.75;;;;;;;;5037205;28;45267;-72
2022/12/30 03:50:59;;;;;;;;;11.25;6.75;;;;;;;;5036140;28;44725;-73
2022/12/30 03:53:24;;;;;;;;;7.50;7.25;;;;;;;;5034797;28;45146;-73
2022/12/30 03:55:50;;;;;;;;;4.00;4.00;;;;;;;;5038537;28;45349;-73
2022/12/30 03:58:15;;;;;;;;;8.25;4.00;;;;;;;;5040113;28;45341;-72
2022/12/30 04:00:41;;;;;;;;;6.00;5.00;;;;;;;;5039305;28;45237;-73
2022/12/30 04:03:06;;;;;;;;;8.50;5.75;;;;;;;;5036915;28;45541;-73
2022/12/30 04:05:31;;;;;;;;;7.75;7.00;;;;;;;;5032948;28;45213;-73
2022/12/30 04:07:56;;;;;;;;;9.50;7.50;;;;;;;;5039958;28;47022;-73
2022/12/30 04:10:21;;;;;;;;;6.50;5.25;;;;;;;;5032532;28;44735;-73
2022/12/30 04:12:47;;;;;;;;;5.50;5.50;;;;;;;;5038948;28;45312;-73
2022/12/30 04:15:12;;;;;;;;;9.50;5.25;;;;;;;;5033202;28;45209;-73
2022/12/30 04:17:37;;;;;;;;;8.75;4.25;;;;;;;;5038287;28;46035;-73
2022/12/30 04:20:03;;;;;;;;;2.50;2.50;;;;;;;;5032428;28;46304;-73
2022/12/30 04:22:29;;;;;;;;;5.25;4.00;;;;;;;;5037773;28;44846;-72
2022/12/30 04:24:54;;;;;;;;;12.25;7.75;;;;;;;;5035029;28;45542;-73
2022/12/30 04:27:19;;;;;;;;;8.75;6.00;;;;;;;;5038756;28;46157;-73
2022/12/30 04:29:44;;;;;;;;;7.00;6.75;;;;;;;;5026349;28;44760;-73
2022/12/30 04:32:09;;;;;;;;;7.50;6.00;;;;;;;;5036367;28;45608;-73
2022/12/30 04:34:35;;;;;;;;;4.75;4.75;;;;;;;;5030773;28;45412;-73
2022/12/30 04:37:00;;;;;;;;;5.25;5.25;;;;;;;;5035256;28;46627;-73
2022/12/30 04:39:26;;;;;;;;;8.00;7.75;;;;;;;;5032778;28;45369;-72
2022/12/30 04:41:51;;;;;;;;;10.75;8.50;;;;;;;;5036225;28;45450;-73
2022/12/30 04:44:16;;;;;;;;;9.00;9.00;;;;;;;;5037620;28;46228;-73
2022/12/30 04:46:41;;;;;;;;;8.00;7.75;;;;;;;;5037664;28;46142;-73
2022/12/30 04:49:06;;;;;;;;;12.25;8.50;;;;;;;;5038626;28;45289;-73
2022/12/30 04:51:32;;;;;;;;;7.00;5.25;;;;;;;;5037665;28;45546;-73
2022/12/30 04:53:57;;;;;;;;;12.00;10.50;;;;;;;;5033627;28;45536;-73
2022/12/30 04:56:22;;;;;;;;;11.00;8.25;;;;;;;;5037348;28;46095;-73
2022/12/30 04:58:47;;;;;;;;;7.75;7.75;;;;;;;;5036112;28;45415;-72
2022/12/30 05:01:13;;;;;;;;;7.00;7.00;;;;;;;;5038243;28;45387;-73
2022/12/30 05:03:38;;;;;;;;;4.00;4.00;;;;;;;;5036089;28;45690;-73
2022/12/30 05:06:03;;;;;;;;;12.00;8.50;;;;;;;;5038249;28;46231;-73
2022/12/30 05:08:28;;;;;;;;;6.50;6.50;;;;;;;;5034492;28;45458;-73
2022/12/30 05:10:53;;;;;;;;;9.00;6.50;;;;;;;;5035621;28;45274;-73
2022/12/30 05:13:19;;;;;;;;;12.00;8.00;;;;;;;;5034499;28;45414;-73
2022/12/30 05:15:44;;;;;;;;;12.00;7.75;;;;;;;;5034032;28;46150;-74
2022/12/30 05:18:10;;;;;;;;;13.25;8.75;;;;;;;;5036497;28;45293;-74
2022/12/30 05:20:35;;;;;;;;;17.00;11.00;;;;;;;;5034562;28;45491;-73
2022/12/30 05:23:00;;;;;;;;;11.25;9.00;;;;;;;;5036611;28;45350;-73
2022/12/30 05:28:09;;;;;;;;;7.00;7.00;;;;;;;;5024380;28;45447;-73
2022/12/30 05:30:34;;;;;;;;;9.75;8.00;;;;;;;;5034827;28;45452;-73
2022/12/30 05:33:00;;;;;;;;;11.25;9.75;;;;;;;;5035035;28;45264;-73
2022/12/30 05:35:25;;;;;;;;;10.25;9.25;;;;;;;;5028905;28;46116;-74
2022/12/30 05:37:50;;;;;;;;;9.25;7.00;;;;;;;;5024714;28;45221;-73
2022/12/30 05:40:15;;;;;;;;;8.75;8.00;;;;;;;;5035920;28;45427;-73
2022/12/30 05:42:40;;;;;;;;;13.25;7.75;;;;;;;;5036334;28;45325;-73
2022/12/30 05:45:06;;;;;;;;;7.50;4.50;;;;;;;;5035877;28;45533;-74
2022/12/30 05:47:31;;;;;;;;;7.25;7.00;;;;;;;;5037195;28;45447;-73
2022/12/30 05:49:57;;;;;;;;;9.50;7.00;;;;;;;;5052842;28;45382;-73
2022/12/30 05:52:22;;;;;;;;;7.75;4.50;;;;;;;;5057891;28;44765;-74
2022/12/30 05:54:47;;;;;;;;;6.00;6.00;;;;;;;;5053989;28;44981;-74
2022/12/30 05:57:13;;;;;;;;;10.75;6.25;;;;;;;;5057833;28;44742;-73
2022/12/30 05:59:38;;;;;;;;;4.50;4.50;;;;;;;;5054051;28;45503;-73
2022/12/30 06:02:03;;;;;;;;;5.00;4.00;;;;;;;;5058778;28;45217;-73
2022/12/30 06:04:28;;;;;;;;;6.00;3.25;;;;;;;;5052952;28;44966;-73
2022/12/30 06:06:54;;;;;;;;;3.00;3.00;;;;;;;;5060032;28;45317;-74
2022/12/30 06:09:19;;;;;;;;;3.25;3.00;;;;;;;;5053491;28;45285;-73
2022/12/30 06:11:44;;;;;;;;;4.75;3.00;;;;;;;;5059153;28;45304;-73
2022/12/30 06:14:12;;;;;;;;;5.00;5.00;;;;;;;;5049416;28;46345;-73
2022/12/30 06:16:37;;;;;;;;;7.25;6.50;;;;;;;;5059134;28;45450;-73
2022/12/30 06:19:02;;;;;;;;;8.50;3.00;;;;;;;;5053429;28;45362;-73
2022/12/30 06:21:27;;;;;;;;;3.50;2.25;;;;;;;;5040086;28;46079;-73
2022/12/30 06:23:53;;;;;;;;;2.25;1.00;;;;;;;;5050973;28;46436;-74
2022/12/30 06:26:18;;;;;;;;;2.25;0.25;;;;;;;;5053123;28;45281;-73
2022/12/30 06:28:43;;;;;;;;;4.50;1.75;;;;;;;;5030800;28;45407;-74
2022/12/30 06:31:08;;;;;;;;;5.50;3.00;;;;;;;;5057782;28;45344;-74
2022/12/30 06:33:35;;;;;;;;;5.00;2.75;;;;;;;;5053063;28;45353;-74
2022/12/30 06:36:00;;;;;;;;;3.00;2.50;;;;;;;;5057526;28;45304;-73
2022/12/30 06:38:25;;;;;;;;;3.50;3.00;;;;;;;;5038883;28;45359;-73
2022/12/30 06:40:50;;;;;;;;;1.00;0.00;;;;;;;;5057708;28;45253;-74
2022/12/30 06:43:15;;;;;;;;;4.75;4.00;;;;;;;;5050714;28;45630;-73
2022/12/30 06:45:41;;;;;;;;;5.50;3.75;;;;;;;;5059146;28;45367;-74
2022/12/30 06:48:06;;;;;;;;;6.00;3.50;;;;;;;;5054430;28;45230;-74
2022/12/30 06:50:32;;;;;;;;;4.00;2.00;;;;;;;;5057473;28;45274;-73
2022/12/30 06:52:57;;;;;;;;;2.75;2.75;;;;;;;;5038069;28;47515;-72
2022/12/30 06:55:22;;;;;;;;;8.00;2.25;;;;;;;;5049657;28;45217;-74
2022/12/30 06:57:48;;;;;;;;;6.75;2.25;;;;;;;;5054985;28;45737;-74
2022/12/30 07:00:14;;;;;;;;;8.25;2.25;;;;;;;;5029582;28;47120;-73
2022/12/30 07:02:39;;;;;;;;;3.25;3.00;;;;;;;;5038554;28;46902;-73
2022/12/30 07:05:04;;;;;;;;;1.00;1.00;;;;;;;;5049105;28;45412;-73
2022/12/30 07:07:29;;;;;;;;;6.00;2.75;;;;;;;;5055013;28;45278;-73
2022/12/30 07:09:55;;;;;;;;;5.75;3.00;;;;;;;;5040674;28;45389;-74
2022/12/30 07:12:20;;;;;;;;;3.00;2.50;;;;;;;;5055546;28;45383;-73
2022/12/30 07:14:45;;;;;;;;;4.00;3.25;;;;;;;;5052832;28;45286;-72
2022/12/30 07:17:10;;;;;;;;;3.00;2.00;;;;;;;;5057986;28;45273;-73
2022/12/30 07:19:36;;;;;;;;;10.50;4.00;;;;;;;;5030900;28;46426;-73
2022/12/30 07:22:01;;;;;;;;;5.00;3.00;;;;;;;;5058426;28;45421;-73
2022/12/30 07:24:26;;;;;;;;;2.25;2.00;;;;;;;;5045409;28;45404;-73
2022/12/30 07:26:51;;;;;;;;;2.75;2.00;;;;;;;;5059535;28;45334;-73
2022/12/30 07:29:17;;;;;;;;;3.00;2.00;;;;;;;;5045169;28;45546;-74
2022/12/30 07:31:42;;;;;;;;;1.75;1.75;;;;;;;;5050978;28;45331;-73
2022/12/30 07:34:07;;;;;;;;;3.00;2.00;;;;;;;;5047801;28;45525;-73
2022/12/30 07:36:32;;;;;;;;;1.75;1.00;;;;;;;;5051133;28;45361;-73
2022/12/30 07:38:59;;;;;;;;;3.25;3.25;;;;;;;;5051168;28;45442;-73
2022/12/30 07:41:24;;;;;;;;;8.00;3.00;;;;;;;;5051523;28;45487;-74
2022/12/30 07:43:50;;;;;;;;;2.50;2.00;;;;;;;;5052296;28;45491;-73
2022/12/30 07:46:15;;;;;;;;;2.25;2.00;;;;;;;;5053156;28;45154;-73
2022/12/30 07:48:40;;;;;;;;;3.25;2.00;;;;;;;;5040108;28;45509;-73
2022/12/30 07:51:07;;;;;;;;;1.75;1.75;;;;;;;;5035774;28;46695;-73
2022/12/30 07:53:32;;;;;;;;;3.00;3.00;;;;;;;;5049709;28;45418;-73
2022/12/30 07:55:57;;;;;;;;;2.75;1.50;;;;;;;;5057154;28;45228;-73
2022/12/30 07:58:22;;;;;;;;;4.00;2.75;;;;;;;;5053999;28;45193;-73
2022/12/30 08:00:48;;;;;;;;;1.00;1.00;;;;;;;;5057226;28;45579;-74
2022/12/30 08:03:13;;;;;;;;;4.75;2.50;;;;;;;;5037449;28;45563;-73
2022/12/30 08:05:38;;;;;;;;;2.50;2.50;;;;;;;;5056476;28;45344;-73
2022/12/30 08:08:03;;;;;;;;;2.50;1.75;;;;;;;;5055430;28;45356;-73
2022/12/30 08:10:29;;;;;;;;;2.50;2.00;;;;;;;;5049836;28;45524;-73
2022/12/30 08:12:54;;;;;;;;;1.00;1.00;;;;;;;;5036783;28;45498;-73
2022/12/30 08:15:19;;;;;;;;;2.00;2.00;;;;;;;;5058118;28;45443;-73
2022/12/30 08:17:44;;;;;;;;;2.25;2.25;;;;;;;;5055907;28;45004;-74
2022/12/30 08:20:10;;;;;;;;;5.00;2.75;;;;;;;;5049753;28;46789;-74
2022/12/30 08:22:36;;;;;;;;;3.00;1.50;;;;;;;;5043041;28;45192;-74
2022/12/30 08:25:01;;;;;;;;;4.25;1.50;;;;;;;;5050461;28;45387;-74
2022/12/30 08:27:26;;;;;;;;;1.50;1.00;;;;;;;;5037424;28;45732;-75
2022/12/30 08:29:51;;;;;;;;;2.50;1.00;;;;;;;;5053050;28;45423;-75
2022/12/30 08:32:17;;;;;;;;;2.00;1.00;;;;;;;;5056372;28;45324;-77
2022/12/30 08:34:42;;;;;;;;;2.00;2.00;;;;;;;;5031261;28;45417;-78
2022/12/30 08:37:07;;;;;;;;;1.75;0.50;;;;;;;;5057438;28;45510;-78
2022/12/30 08:39:32;;;;;;;;;1.25;1.00;;;;;;;;5034823;28;46903;-79
2022/12/30 08:41:57;;;;;;;;;1.75;1.75;;;;;;;;5058288;28;45257;-78
2022/12/30 08:44:23;;;;;;;;;4.50;3.00;;;;;;;;5052951;28;45452;-78
2022/12/30 08:46:48;;;;;;;;;7.75;3.50;;;;;;;;5040769;28;45333;-78
2022/12/30 08:49:14;;;;;;;;;1.75;1.75;;;;;;;;5052573;28;45297;-79
2022/12/30 08:51:39;;;;;;;;;4.00;1.50;;;;;;;;5036537;28;45471;-78
2022/12/30 08:54:05;;;;;;;;;1.00;1.00;;;;;;;;5042012;28;45421;-77
2022/12/30 08:56:34;;;;;;;;;1.25;0.00;;;;;;;;5058753;28;45247;-76
2022/12/30 08:59:00;;;;;;;;;3.00;1.50;;;;;;;;5053244;28;45647;-76
2022/12/30 09:01:26;;;;;;;;;2.50;2.50;;;;;;;;5059697;28;45594;-76
2022/12/30 09:03:52;;;;;;;;;4.25;2.50;;;;;;;;5054759;28;45444;-76
2022/12/30 09:06:19;;;;;;;;;1.00;1.00;;;;;;;;5061155;28;45510;-76
2022/12/30 09:08:45;;;;;;;;;1.75;1.75;;;;;;;;5053078;28;46227;-76
2022/12/30 09:11:15;;;;;;;;;1.00;1.00;;;;;;;;5040276;28;45210;-77
2022/12/30 09:13:40;;;;;;;;;1.75;1.75;;;;;;;;5034891;28;45295;-76
2022/12/30 09:16:07;;;;;;;;;3.00;2.00;;;;;;;;5057357;28;45254;-76
2022/12/30 09:18:33;;;;;;;;;1.50;1.50;;;;;;;;5053908;28;45292;-76
2022/12/30 09:20:58;;;;;;;;;1.00;1.00;;;;;;;;5056797;28;45413;-76
2022/12/30 09:23:23;;;;;;;;;2.00;1.00;;;;;;;;5031993;28;45479;-76
2022/12/30 09:25:48;;;;;;;;;4.50;1.50;;;;;;;;5057788;28;45447;-76
2022/12/30 09:28:14;;;;;;;;;1.75;1.00;;;;;;;;5052609;28;45410;-76
2022/12/30 09:30:39;;;;;;;;;5.50;3.75;;;;;;;;5048324;28;45340;-76
2022/12/30 09:33:04;;;;;;;;;1.50;1.00;;;;;;;;5042084;28;45458;-77
2022/12/30 09:35:29;;;;;;;;;3.00;1.75;;;;;;;;5048092;28;45392;-76
2022/12/30 09:37:55;;;;;;;;;2.00;2.00;;;;;;;;5056256;28;46124;-76
2022/12/30 09:40:25;;;;;;;;;2.25;1.50;;;;;;;;5049449;28;45262;-76
2022/12/30 09:45:48;;;;;;;;;2.25;2.00;;;;;;;;5052751;28;45495;-77
2022/12/30 09:48:19;;;;;;;;;2.75;2.25;;;;;;;;5053429;28;45483;-78
2022/12/30 09:50:48;;;;;;;;;2.00;1.25;;;;;;;;5042351;28;44746;-77
2022/12/30 09:53:31;;;;;;;;;2.00;2.00;;;;;;;;5041544;28;45381;-77
2022/12/30 09:55:59;;;;;;;;;3.25;1.00;;;;;;;;5036826;28;46231;-77
2022/12/30 09:58:29;;;;;;;;;5.00;2.00;;;;;;;;5039456;28;45601;-76
2022/12/30 10:00:56;;;;;;;;;3.50;2.00;;;;;;;;5057025;28;45495;-77
2022/12/30 10:03:25;;;;;;;;;2.00;2.00;;;;;;;;5038687;28;45467;-77
2022/12/30 10:06:08;;;;;;;;;5.25;1.00;;;;;;;;5051644;28;45242;-77
2022/12/30 10:08:46;;;;;;;;;2.75;1.00;;;;;;;;5037590;28;47431;-78
2022/12/30 10:11:26;;;;;;;;;2.50;1.75;;;;;;;;5056972;28;45308;-77
2022/12/30 10:14:12;;;;;;;;;0.00;0.00;;;;;;;;5049233;28;44698;-78
2022/12/30 10:16:40;;;;;;;;;1.50;0.75;;;;;;;;5040340;28;47789;-77
2022/12/30 10:19:18;;;;;;;;;2.00;2.00;;;;;;;;5049262;28;46208;-77
2022/12/30 10:21:55;;;;;;;;;1.75;1.00;;;;;;;;5049976;28;44746;-78
2022/12/30 10:24:20;;;;;;;;;1.50;1.50;;;;;;;;5033388;28;45467;-78
2022/12/30 10:26:46;;;;;;;;;2.50;1.25;;;;;;;;5051661;28;45239;-78
2022/12/30 10:29:14;;;;;;;;;3.50;1.00;;;;;;;;5046871;28;46130;-78
2022/12/30 10:31:40;;;;;;;;;2.25;1.00;;;;;;;;5051775;28;45285;-78
2022/12/30 10:34:16;;;;;;;;;2.50;2.50;;;;;;;;5051725;28;45210;-78
2022/12/30 10:37:01;;;;;;;;;2.00;1.00;;;;;;;;5053240;28;45235;-77
2022/12/30 10:39:34;;;;;;;;;0.00;0.00;;;;;;;;5038797;28;47828;-78
2022/12/30 10:42:06;;;;;;;;;0.00;0.00;;;;;;;;5038443;28;45369;-79
2022/12/30 10:44:50;;;;;;;;;0.00;0.00;;;;;;;;5035214;28;45375;-78
2022/12/30 10:47:23;;;;;;;;;0.00;0.00;;;;;;;;5055159;28;45534;-79
2022/12/30 10:50:14;;;;;;;;;0.33;0.33;;;;;;;;5047576;28;45296;-79
2022/12/30 10:52:39;;;;;;;;;0.00;0.00;;;;;;;;5047666;28;45249;-77
2022/12/30 10:55:23;;;;;;;;;0.00;0.00;;;;;;;;5052473;28;45302;-77
2022/12/30 10:57:51;;;;;;;;;1.00;0.00;;;;;;;;5039000;28;45205;-78
2022/12/30 11:00:17;;;;;;;;;0.00;0.00;;;;;;;;5041036;28;47197;-79
2022/12/30 11:02:51;;;;;;;;;0.00;0.00;;;;;;;;5056633;28;45290;-79
2022/12/30 11:05:28;;;;;;;;;0.00;0.00;;;;;;;;5041157;28;45175;-79
2022/12/30 11:07:57;;;;;;;;;0.00;0.00;;;;;;;;5054200;28;45367;-79
2022/12/30 11:10:22;;;;;;;;;1.00;0.00;;;;;;;;5048022;28;45301;-78
2022/12/30 11:15:48;;;;;;;;;1.00;0.00;;;;;;;;5050880;28;45463;-79
2022/12/30 11:18:14;;;;;;;;;0.67;0.33;;;;;;;;5054805;28;46221;-80
2022/12/30 11:20:40;;;;;;;;;0.67;0.00;;;;;;;;5041501;28;48222;-77
2022/12/30 11:23:23;;;;;;;;;0.00;0.00;;;;;;;;5050708;28;45351;-79
2022/12/30 11:25:49;;;;;;;;;0.00;0.00;;;;;;;;5045089;28;45286;-78
2022/12/30 11:28:16;;;;;;;;;0.00;0.00;;;;;;;;5049535;28;45431;-79
2022/12/30 11:30:50;;;;;;;;;0.00;0.00;;;;;;;;5049441;28;45463;-79
2022/12/30 11:33:17;;;;;;;;;0.00;0.00;;;;;;;;5051192;28;45488;-79
2022/12/30 11:35:44;;;;;;;;;0.00;0.00;;;;;;;;5050351;28;45488;-79
2022/12/30 11:38:25;;;;;;;;;0.00;0.00;;;;;;;;5054470;28;45400;-78
2022/12/30 11:40:51;;;;;;;;;1.00;0.00;;;;;;;;5041684;28;46605;-78
2022/12/30 11:43:18;;;;;;;;;0.00;0.00;;;;;;;;5038282;28;45420;-78
2022/12/30 11:45:55;;;;;;;;;0.00;0.00;;;;;;;;5053228;28;45416;-78
2022/12/30 11:48:30;;;;;;;;;0.00;0.00;;;;;;;;5052149;28;45298;-79
2022/12/30 11:50:56;;;;;;;;;0.00;0.00;;;;;;;;5053677;28;45583;-78
2022/12/30 11:53:24;;;;;;;;;1.00;0.00;;;;;;;;5051185;28;45348;-78
2022/12/30 11:55:53;;;;;;;;;0.00;0.00;;;;;;;;5054986;28;45388;-77
2022/12/30 11:58:19;;;;;;;;;0.00;0.00;;;;;;;;5053783;28;45309;-78
2022/12/30 12:00:46;;;;;;;;;0.00;0.00;;;;;;;;5037801;28;47166;-80
2022/12/30 12:03:13;;;;;;;;;0.00;0.00;;;;;;;;5048048;28;45451;-79
2022/12/30 12:05:41;;;;;;;;;0.00;0.00;;;;;;;;5056143;28;45228;-78
2022/12/30 12:08:13;;;;;;;;;0.00;0.00;;;;;;;;5054274;28;45536;-78
2022/12/30 12:10:38;;;;;;;;;1.00;1.00;;;;;;;;5033959;28;47196;-79
2022/12/30 12:13:09;;;;;;;;;0.00;0.00;;;;;;;;5038732;28;45236;-78
2022/12/30 12:16:07;;;;;;;;;1.00;0.00;;;;;;;;5035921;28;45435;-78
2022/12/30 12:18:35;;;;;;;;;0.00;0.00;;;;;;;;5005392;28;46123;-78
2022/12/30 12:21:10;;;;;;;;;0.00;0.00;;;;;;;;5061121;28;46376;-79
2022/12/30 12:23:37;;;;;;;;;2.00;0.00;;;;;;;;5049762;28;45485;-80
2022/12/30 12:26:03;;;;;;;;;0.00;0.00;;;;;;;;5050723;28;45383;-80
2022/12/30 12:28:29;;;;;;;;;0.00;0.00;;;;;;;;5042529;28;47028;-80
2022/12/30 12:31:07;;;;;;;;;0.00;0.00;;;;;;;;5052614;28;46273;-79
2022/12/30 12:33:39;;;;;;;;;0.00;0.00;;;;;;;;5053515;28;45499;-79
2022/12/30 12:36:23;;;;;;;;;0.00;0.00;;;;;;;;5053116;28;45330;-78
2022/12/30 12:38:54;;;;;;;;;0.33;0.00;;;;;;;;5055298;28;45444;-78
2022/12/30 12:41:25;;;;;;;;;0.67;0.67;;;;;;;;5054564;28;45944;-78
2022/12/30 12:43:56;;;;;;;;;0.00;0.00;;;;;;;;5054547;28;45274;-77
2022/12/30 12:46:27;;;;;;;;;0.00;0.00;;;;;;;;5056434;28;45444;-78
2022/12/30 12:49:11;;;;;;;;;0.00;0.00;;;;;;;;5052112;28;45319;-78
2022/12/30 12:51:42;;;;;;;;;0.67;0.67;;;;;;;;5042307;28;47228;-77
2022/12/30 12:54:26;;;;;;;;;1.67;1.67;;;;;;;;5052364;28;45451;-79
2022/12/30 12:57:10;;;;;;;;;1.00;1.00;;;;;;;;5060685;28;45332;-79
2022/12/30 12:59:36;;;;;;;;;0.00;0.00;;;;;;;;5030364;28;45903;-78
2022/12/30 13:02:04;;;;;;;;;1.00;1.00;;;;;;;;5060943;28;45398;-79
2022/12/30 13:04:41;;;;;;;;;1.00;1.00;;;;;;;;5029225;28;45622;-80
2022/12/30 13:07:25;;;;;;;;;1.67;0.00;;;;;;;;5032797;28;45467;-80
2022/12/30 13:09:57;;;;;;;;;1.00;0.00;;;;;;;;5048090;28;45657;-79
2022/12/30 13:12:27;;;;;;;;;0.00;0.00;;;;;;;;5058357;28;46259;-79
2022/12/30 13:14:56;;;;;;;;;2.00;0.00;;;;;;;;5051494;28;45225;-80
2022/12/30 13:17:42;;;;;;;;;8.33;4.67;;;;;;;;5039768;28;45522;-80
2022/12/30 13:20:14;;;;;;;;;2.00;2.00;;;;;;;;5057532;28;45408;-80
2022/12/30 13:22:39;;;;;;;;;0.00;0.00;;;;;;;;5056462;28;46417;-79
2022/12/30 13:25:12;;;;;;;;;0.00;0.00;;;;;;;;5044354;28;45231;-80
2022/12/30 13:27:38;;;;;;;;;0.00;0.00;;;;;;;;5055029;28;45634;-79
2022/12/30 13:30:05;;;;;;;;;1.33;1.33;;;;;;;;5049455;28;45195;-79
2022/12/30 13:32:36;;;;;;;;;1.00;1.00;;;;;;;;5055932;28;45513;-79
2022/12/30 13:35:15;;;;;;;;;0.33;0.33;;;;;;;;5056806;28;45246;-79
2022/12/30 13:37:46;;;;;;;;;1.00;0.00;;;;;;;;5057380;28;45489;-79
2022/12/30 13:40:15;;;;;;;;;0.00;0.00;;;;;;;;5035639;28;45695;-78
2022/12/30 13:42:46;;;;;;;;;1.33;1.33;;;;;;;;5046326;28;45427;-79
2022/12/30 13:45:20;;;;;;;;;1.67;1.67;;;;;;;;5051461;28;45309;-77
2022/12/30 13:47:46;;;;;;;;;2.00;0.00;;;;;;;;5039967;28;45304;-79
2022/12/30 13:50:21;;;;;;;;;0.33;0.33;;;;;;;;5054877;28;45400;-79
2022/12/30 13:52:54;;;;;;;;;0.00;0.00;;;;;;;;5056521;28;45597;-79
2022/12/30 13:55:30;;;;;;;;;1.00;0.00;;;;;;;;5037648;28;45337;-79
2022/12/30 13:57:58;;;;;;;;;0.00;0.00;;;;;;;;5055782;28;45389;-79
2022/12/30 14:00:32;;;;;;;;;0.00;0.00;;;;;;;;5042063;28;45372;-79
2022/12/30 14:03:16;;;;;;;;;0.67;0.00;;;;;;;;5056650;28;45910;-78
2022/12/30 14:05:41;;;;;;;;;0.00;0.00;;;;;;;;5052394;28;45364;-79
2022/12/30 14:08:16;;;;;;;;;0.00;0.00;;;;;;;;5057830;28;45394;-79
2022/12/30 14:10:52;;;;;;;;;0.00;0.00;;;;;;;;5034506;28;45782;-79
2022/12/30 14:13:23;;;;;;;;;0.33;0.00;;;;;;;;5055230;28;45373;-78
2022/12/30 14:15:50;;;;;;;;;2.33;0.00;;;;;;;;5034989;28;45467;-78
2022/12/30 14:18:33;;;;;;;;;1.33;1.33;;;;;;;;5052257;28;45315;-78
2022/12/30 14:21:00;;;;;;;;;0.33;0.33;;;;;;;;5038225;28;45514;-79
2022/12/30 14:23:56;;;;;;;;;0.00;0.00;;;;;;;;5049999;28;45253;-78
2022/12/30 14:26:22;;;;;;;;;0.00;0.00;;;;;;;;5024299;28;45503;-80
2022/12/30 14:28:49;;;;;;;;;0.00;0.00;;;;;;;;5052116;28;45590;-80
2022/12/30 14:31:27;;;;;;;;;0.00;0.00;;;;;;;;5050809;28;45217;-79
2022/12/30 14:33:52;;;;;;;;;0.00;0.00;;;;;;;;5051718;28;45444;-78
2022/12/30 14:36:19;;;;;;;;;0.00;0.00;;;;;;;;5051544;28;45355;-79
2022/12/30 14:38:51;;;;;;;;;0.00;0.00;;;;;;;;5040662;28;45290;-79
2022/12/30 14:41:18;;;;;;;;;0.67;0.67;;;;;;;;5041272;28;45551;-78
2022/12/30 14:43:46;;;;;;;;;0.00;0.00;;;;;;;;5052686;28;45536;-79
2022/12/30 14:46:30;;;;;;;;;0.00;0.00;;;;;;;;5053895;28;45426;-78
2022/12/30 14:49:02;;;;;;;;;2.33;2.33;;;;;;;;5052496;28;45568;-77
2022/12/30 14:51:27;;;;;;;;;0.00;0.00;;;;;;;;5040577;28;45383;-77
2022/12/30 14:53:53;;;;;;;;;2.00;2.00;;;;;;;;5043141;28;45036;-78
2022/12/30 14:56:19;;;;;;;;;4.00;4.00;;;;;;;;5053456;28;45489;-78
2022/12/30 14:58:45;;;;;;;;;0.00;0.00;;;;;;;;5050509;28;45342;-78
2022/12/30 15:01:11;;;;;;;;;1.67;1.00;;;;;;;;5052983;28;45629;-78
2022/12/30 15:03:36;;;;;;;;;1.00;1.00;;;;;;;;5030071;28;46815;-79
2022/12/30 15:06:02;;;;;;;;;1.00;1.00;;;;;;;;5054230;28;45283;-80
2022/12/30 15:08:35;;;;;;;;;18.67;14.00;;;;;;;;5045175;28;45598;-79
2022/12/30 15:11:04;;;;;;;;;47.25;36.50;;;;;;;;5053786;28;45482;-80
2022/12/30 15:13:35;;;;;;;;;8.00;7.00;;;;;;;;5047777;28;45517;-79
2022/12/30 15:16:05;;;;;;;;;17.67;17.67;;;;;;;;5054767;28;45372;-79
2022/12/30 15:18:33;;;;;;;;;9.00;9.00;;;;;;;;5047454;28;45470;-79
2022/12/30 15:20:59;;;;;;;;;28.67;24.00;;;;;;;;5045982;28;45496;-79
2022/12/30 15:23:24;;;;;;;;;1.00;1.00;;;;;;;;5049519;28;45524;-79
2022/12/30 15:25:56;;;;;;;;;16.67;15.33;;;;;;;;5056174;28;45623;-79
2022/12/30 15:28:21;;;;;;;;;21.67;20.67;;;;;;;;5051230;28;45250;-79
2022/12/30 15:30:50;;;;;;;;;29.33;26.00;;;;;;;;5032533;28;46494;-80
2022/12/30 15:33:15;;;;;;;;;29.00;22.67;;;;;;;;5052042;28;45420;-77
2022/12/30 15:35:41;;;;;;;;;13.67;12.33;;;;;;;;5051447;28;45230;-76
2022/12/30 15:38:11;;;;;;;;;7.67;7.67;;;;;;;;5040347;28;45273;-77
2022/12/30 15:40:36;;;;;;;;;13.33;10.33;;;;;;;;5033783;28;46949;-79
2022/12/30 15:43:10;;;;;;;;;0.00;0.00;;;;;;;;5039949;28;47310;-77
2022/12/30 15:45:41;;;;;;;;;5.00;5.00;;;;;;;;5053702;28;45414;-77
2022/12/30 15:48:29;;;;;;;;;14.33;13.00;;;;;;;;5053033;28;45286;-77
2022/12/30 15:51:00;;;;;;;;;5.33;4.00;;;;;;;;5053010;28;45325;-78